Time;durP1;ratioP1;P1;durP2;ratioP2;P2;SDS_P1;SDS_P2;PMS_P1;PMS_P2;Temp;Humidity;BMP_temperature;BMP_pressure;BME280_temperature;BME280_humidity;BME280_pressure;Samples;Min_cycle;Max_cycle;Signal;HPM_P1;HPM_P2
2023/07/13 00:02:28;;;;;;;6.60;6.03;;;;;;;26.36;46.15;95343.69;6267159;27;110020;-65
2023/07/13 00:05:31;;;;;;;5.80;5.40;;;;;;;26.28;44.81;95343.41;6279575;27;109459;-63
2023/07/13 00:08:35;;;;;;;5.90;5.30;;;;;;;26.23;45.32;95332.88;6277251;27;108947;-63
2023/07/13 00:11:39;;;;;;;5.13;4.73;;;;;;;26.30;45.31;95331.56;6266446;27;108967;-63
2023/07/13 00:14:42;;;;;;;6.00;4.83;;;;;;;26.22;44.34;95330.53;6251198;27;109205;-63
2023/07/13 00:17:47;;;;;;;6.10;5.50;;;;;;;26.17;45.00;95336.84;6267645;27;109173;-63
2023/07/13 00:20:50;;;;;;;5.13;4.73;;;;;;;26.21;44.51;95332.44;6265349;27;109223;-64
2023/07/13 00:23:53;;;;;;;6.27;5.77;;;;;;;26.25;44.73;95327.19;6262780;27;108982;-65
2023/07/13 00:26:56;;;;;;;5.80;5.30;;;;;;;26.28;44.05;95334.59;6252136;27;109030;-64
2023/07/13 00:30:00;;;;;;;6.47;5.77;;;;;;;26.27;44.08;95333.81;6257313;27;109166;-64
2023/07/13 00:33:04;;;;;;;5.30;4.90;;;;;;;26.26;44.76;95331.44;6261204;27;109036;-64
2023/07/13 00:36:21;;;;;;;6.97;6.40;;;;;;;26.19;44.75;95325.78;6256731;27;109081;-64
2023/07/13 00:39:24;;;;;;;7.10;6.57;;;;;;;25.97;46.50;95316.91;6261681;27;110133;-64
2023/07/13 00:42:28;;;;;;;6.57;6.00;;;;;;;25.91;47.10;95325.47;6269149;27;109346;-64
2023/07/13 00:46:08;;;;;;;7.40;6.70;;;;;;;25.91;46.91;95325.47;6279986;27;111632;-64
2023/07/13 00:49:19;;;;;;;6.67;5.97;;;;;;;25.97;46.68;95330.31;6248323;27;110039;-64
2023/07/13 00:52:24;;;;;;;7.60;6.90;;;;;;;25.99;47.02;95335.34;6261306;27;109095;-64
2023/07/13 00:55:28;;;;;;;6.60;5.97;;;;;;;26.04;46.24;95323.66;6274140;27;109721;-65
2023/07/13 00:58:31;;;;;;;6.43;5.90;;;;;;;26.07;46.97;95313.09;6273030;27;109157;-65
2023/07/13 01:01:36;;;;;;;6.80;6.10;;;;;;;26.07;46.23;95313.09;6251317;27;110061;-64
2023/07/13 01:04:42;;;;;;;6.30;5.70;;;;;;;26.12;46.68;95314.81;6262116;27;110094;-65
2023/07/13 01:07:46;;;;;;;6.37;5.77;;;;;;;26.14;46.67;95312.56;6275903;27;109266;-64
2023/07/13 01:10:53;;;;;;;6.30;5.80;;;;;;;26.14;46.47;95317.94;6263306;27;108995;-64
2023/07/13 01:13:56;;;;;;;6.83;6.23;;;;;;;26.08;46.88;95320.03;6281965;27;109018;-64
2023/07/13 01:17:00;;;;;;;7.40;6.60;;;;;;;25.99;46.04;95308.53;6285601;27;108981;-65
2023/07/13 01:20:08;;;;;;;6.50;5.90;;;;;;;26.04;46.26;95311.03;6273214;27;109211;-65
2023/07/13 01:23:13;;;;;;;6.47;5.87;;;;;;;26.06;45.83;95316.91;6242963;27;109058;-64
2023/07/13 01:26:16;;;;;;;6.60;6.00;;;;;;;26.07;46.14;95315.00;6265267;27;109029;-64
2023/07/13 01:29:20;;;;;;;7.27;6.57;;;;;;;26.07;45.74;95307.75;6273019;27;109124;-65
2023/07/13 01:32:25;;;;;;;6.83;6.23;;;;;;;26.08;45.47;95308.53;6257252;27;109031;-63
2023/07/13 01:35:28;;;;;;;6.70;6.10;;;;;;;26.07;45.71;95312.31;6255414;27;110097;-64
2023/07/13 01:38:34;;;;;;;7.33;6.63;;;;;;;25.93;45.07;95310.63;6267937;27;109230;-65
2023/07/13 01:41:37;;;;;;;7.33;6.63;;;;;;;25.78;45.91;95310.38;6264244;27;109239;-64
2023/07/13 01:44:41;;;;;;;7.60;6.77;;;;;;;25.84;45.26;95317.13;6262804;27;109075;-67
2023/07/13 01:47:44;;;;;;;7.60;6.47;;;;;;;25.90;45.42;95313.16;6275038;27;110602;-70
2023/07/13 01:50:48;;;;;;;7.43;6.83;;;;;;;25.89;45.69;95311.59;6262668;27;109018;-69
2023/07/13 01:53:53;;;;;;;6.83;6.33;;;;;;;25.95;45.60;95308.41;6264410;27;109257;-69
2023/07/13 01:56:56;;;;;;;7.80;6.97;;;;;;;25.97;45.33;95305.38;6256917;27;109019;-69
2023/07/13 01:59:59;;;;;;;7.27;6.60;;;;;;;25.93;45.83;95299.09;6261756;27;108999;-70
2023/07/13 02:03:02;;;;;;;7.73;6.87;;;;;;;25.99;45.87;95306.63;6271953;27;109127;-69
2023/07/13 02:06:06;;;;;;;9.13;6.80;;;;;;;25.98;45.54;95309.63;6267698;27;109188;-69
2023/07/13 02:09:11;;;;;;;7.50;6.80;;;;;;;25.97;45.54;95314.22;6271386;27;109466;-68
2023/07/13 02:12:14;;;;;;;7.47;6.77;;;;;;;25.99;45.42;95305.84;6263850;27;109317;-69
2023/07/13 02:15:18;;;;;;;7.20;6.57;;;;;;;25.99;45.58;95303.94;6273594;27;109281;-69
2023/07/13 02:18:21;;;;;;;6.77;6.13;;;;;;;26.01;45.40;95313.59;6280694;27;109070;-68
2023/07/13 02:21:25;;;;;;;6.93;6.40;;;;;;;26.02;45.57;95305.22;6263036;27;108971;-69
2023/07/13 02:24:29;;;;;;;7.40;6.90;;;;;;;26.02;45.90;95307.91;6271863;27;109320;-69
2023/07/13 02:27:32;;;;;;;7.23;6.53;;;;;;;25.94;45.35;95304.16;6283667;27;109009;-69
2023/07/13 02:30:36;;;;;;;6.97;6.37;;;;;;;26.01;45.71;95321.63;6269052;27;109361;-69
2023/07/13 02:33:39;;;;;;;7.23;6.63;;;;;;;26.02;45.63;95320.53;6252020;27;109050;-69
2023/07/13 02:36:42;;;;;;;7.83;6.50;;;;;;;25.89;45.56;95325.78;6283337;27;110664;-69
2023/07/13 02:39:47;;;;;;;7.00;6.27;;;;;;;25.90;45.16;95323.88;6274797;27;109021;-69
2023/07/13 02:42:51;;;;;;;7.20;6.60;;;;;;;25.91;45.25;95328.94;6257659;27;109092;-70
2023/07/13 02:45:54;;;;;;;7.10;6.00;;;;;;;25.97;45.38;95329.53;6271913;27;109274;-69
2023/07/13 02:48:57;;;;;;;7.43;6.80;;;;;;;25.97;44.88;95329.53;6242182;27;109253;-69
2023/07/13 02:52:00;;;;;;;7.80;7.10;;;;;;;25.93;44.88;95333.97;6263022;27;108983;-69
2023/07/13 02:55:05;;;;;;;7.83;7.10;;;;;;;25.82;45.24;95328.16;6234428;27;108995;-64
2023/07/13 02:58:08;;;;;;;7.63;6.93;;;;;;;25.91;44.98;95331.63;6265867;27;108952;-63
2023/07/13 03:01:12;;;;;;;12.87;11.77;;;;;;;25.95;45.44;95329.06;6272318;27;109372;-62
2023/07/13 03:04:19;;;;;;;7.23;6.63;;;;;;;25.97;44.80;95332.22;6267611;27;108986;-64
2023/07/13 03:07:22;;;;;;;11.03;9.93;;;;;;;25.91;45.09;95334.28;6271614;27;110019;-62
2023/07/13 03:10:27;;;;;;;9.43;8.60;;;;;;;25.95;45.20;95334.44;6269068;27;109066;-63
2023/07/13 03:13:31;;;;;;;11.30;10.30;;;;;;;25.96;44.96;95334.09;6277478;27;108969;-62
2023/07/13 03:16:34;;;;;;;12.27;11.20;;;;;;;25.97;45.30;95337.56;6263907;27;109172;-62
2023/07/13 03:19:37;;;;;;;14.03;12.37;;;;;;;26.01;45.24;95338.50;6274660;27;109216;-63
2023/07/13 03:22:40;;;;;;;13.87;12.67;;;;;;;25.96;45.18;95339.47;6265017;27;110681;-63
2023/07/13 03:25:45;;;;;;;14.97;13.67;;;;;;;26.00;45.35;95342.31;6270168;27;111618;-63
2023/07/13 03:28:49;;;;;;;12.17;11.10;;;;;;;25.92;45.06;95337.75;6271597;27;109017;-63
2023/07/13 03:31:52;;;;;;;14.70;13.43;;;;;;;26.00;46.07;95345.00;6265902;27;109042;-63
2023/07/13 03:34:55;;;;;;;10.03;9.07;;;;;;;25.92;45.16;95337.75;6277453;27;109086;-63
2023/07/13 03:37:58;;;;;;;9.93;9.03;;;;;;;25.92;45.83;95341.22;6259154;27;109151;-66
2023/07/13 03:41:03;;;;;;;10.00;9.20;;;;;;;25.73;45.06;95340.84;6253924;27;109836;-62
2023/07/13 03:44:07;;;;;;;10.80;9.73;;;;;;;25.88;45.82;95347.56;6262214;27;109010;-63
2023/07/13 03:47:10;;;;;;;9.30;8.27;;;;;;;25.67;45.56;95334.84;6262380;27;108994;-62
2023/07/13 03:50:13;;;;;;;11.20;8.80;;;;;;;25.79;45.83;95333.41;6254492;27;109138;-64
2023/07/13 03:53:16;;;;;;;10.67;9.83;;;;;;;25.88;45.91;95334.94;6280728;27;109012;-62
2023/07/13 03:56:21;;;;;;;9.70;8.80;;;;;;;25.91;45.51;95330.81;6244499;27;109076;-63
2023/07/13 03:59:24;;;;;;;10.20;9.20;;;;;;;25.96;45.92;95338.69;6260562;27;109726;-68
2023/07/13 04:02:27;;;;;;;9.33;8.30;;;;;;;26.01;45.50;95338.50;6251004;27;109082;-65
2023/07/13 04:05:30;;;;;;;10.97;9.80;;;;;;;25.99;45.62;95346.06;6261815;27;109043;-65
2023/07/13 04:08:36;;;;;;;9.50;8.50;;;;;;;25.97;45.69;95345.63;6261332;27;109191;-66
2023/07/13 04:11:40;;;;;;;11.33;7.93;;;;;;;25.97;47.05;95340.25;6257412;27;109023;-64
2023/07/13 04:14:43;;;;;;;10.50;8.20;;;;;;;26.01;46.18;95340.41;6251029;27;109084;-64
2023/07/13 04:17:47;;;;;;;9.17;7.50;;;;;;;25.74;45.84;95341.63;6278299;27;109017;-64
2023/07/13 04:20:51;;;;;;;8.33;7.47;;;;;;;25.75;46.15;95343.19;6260172;27;109035;-64
2023/07/13 04:23:54;;;;;;;9.23;6.87;;;;;;;25.66;45.84;95346.69;6264820;27;109056;-65
2023/07/13 04:26:59;;;;;;;9.63;8.73;;;;;;;25.68;46.26;95349.81;6263592;27;109479;-66
2023/07/13 04:30:02;;;;;;;9.17;8.37;;;;;;;25.94;46.20;95352.41;6258105;27;109216;-65
2023/07/13 04:33:05;;;;;;;9.90;8.90;;;;;;;26.01;45.24;95351.13;6260945;27;109035;-65
2023/07/13 04:36:09;;;;;;;13.03;8.67;;;;;;;26.03;45.38;95355.06;6251707;27;111766;-63
2023/07/13 04:39:13;;;;;;;9.47;8.40;;;;;;;25.80;46.25;95353.72;6261426;27;109066;-65
2023/07/13 04:42:18;;;;;;;9.30;8.50;;;;;;;25.66;45.67;95356.63;6261408;27;109102;-65
2023/07/13 04:45:21;;;;;;;12.73;11.60;;;;;;;25.82;45.99;95354.19;6261842;27;108780;-65
2023/07/13 04:48:25;;;;;;;29.00;26.53;;;;;;;25.90;45.99;95361.44;6250297;27;110158;-64
2023/07/13 04:51:28;;;;;;;19.93;18.30;;;;;;;25.94;45.77;95365.03;6262404;27;108935;-66
2023/07/13 04:54:31;;;;;;;11.97;10.97;;;;;;;25.94;46.17;95363.13;6265597;27;108971;-64
2023/07/13 04:57:36;;;;;;;12.10;10.90;;;;;;;25.71;47.70;95361.00;6261189;27;109154;-64
2023/07/13 05:00:40;;;;;;;12.30;9.93;;;;;;;25.71;47.38;95363.69;6260006;27;109156;-64
2023/07/13 05:03:43;;;;;;;11.60;9.80;;;;;;;25.57;48.31;95377.31;6265624;27;109005;-64
2023/07/13 05:06:46;;;;;;;14.23;9.37;;;;;;;25.55;47.67;95383.00;6265584;27;109319;-64
2023/07/13 05:09:49;;;;;;;12.13;9.30;;;;;;;25.47;48.03;95375.75;6255509;27;109179;-63
2023/07/13 05:12:54;;;;;;;12.43;8.50;;;;;;;25.13;49.35;95381.94;6265036;27;109160;-64
2023/07/13 05:15:58;;;;;;;10.00;9.00;;;;;;;25.27;48.53;95387.91;6265512;27;108747;-70
2023/07/13 05:19:02;;;;;;;9.93;9.00;;;;;;;24.96;49.63;95387.28;6265203;27;109042;-70
2023/07/13 05:22:06;;;;;;;12.40;9.70;;;;;;;25.18;49.05;95389.00;6254768;27;109070;-68
2023/07/13 05:25:09;;;;;;;11.60;8.60;;;;;;;25.29;48.88;95379.53;6265559;27;108938;-68
2023/07/13 05:28:14;;;;;;;9.83;8.77;;;;;;;25.33;49.16;95386.63;6265091;27;108982;-68
2023/07/13 05:31:17;;;;;;;10.17;8.67;;;;;;;25.26;49.52;95394.38;6258381;27;109031;-69
2023/07/13 05:34:20;;;;;;;9.60;8.70;;;;;;;25.38;48.80;95388.41;6255335;27;109826;-69
2023/07/13 05:37:24;;;;;;;10.70;9.13;;;;;;;24.96;50.07;95382.72;6264977;27;109040;-70
2023/07/13 05:40:27;;;;;;;10.07;9.10;;;;;;;24.97;50.24;95376.25;6264892;27;109012;-70
2023/07/13 05:43:31;;;;;;;9.43;8.43;;;;;;;25.31;48.94;95388.84;6260025;27;108769;-70
2023/07/13 05:46:34;;;;;;;9.60;8.80;;;;;;;25.42;48.24;95400.03;6260663;27;109014;-69
2023/07/13 05:49:37;;;;;;;10.00;9.10;;;;;;;25.64;48.42;95399.81;6264782;27;109153;-68
2023/07/13 05:52:41;;;;;;;9.57;8.57;;;;;;;25.81;47.22;95385.59;6264764;27;109117;-68
2023/07/13 05:55:47;;;;;;;9.83;8.93;;;;;;;25.91;47.50;95395.19;6254290;27;109334;-68
2023/07/13 05:58:52;;;;;;;9.67;8.87;;;;;;;26.02;47.38;95385.69;6264304;27;109037;-69
2023/07/13 06:01:55;;;;;;;12.37;8.57;;;;;;;25.94;47.89;95386.50;6264252;27;109312;-68
2023/07/13 06:04:58;;;;;;;12.00;8.60;;;;;;;25.94;47.32;95392.63;6263561;27;109551;-68
2023/07/13 06:08:01;;;;;;;8.97;8.27;;;;;;;26.06;47.69;95394.69;6253372;27;109079;-68
2023/07/13 06:11:07;;;;;;;13.17;11.87;;;;;;;26.07;47.87;95380.16;6264049;27;109089;-68
2023/07/13 06:14:12;;;;;;;17.83;15.87;;;;;;;26.13;47.90;95373.50;6264307;27;110218;-68
2023/07/13 06:17:15;;;;;;;12.20;11.20;;;;;;;26.25;47.25;95383.53;6258843;27;108766;-68
2023/07/13 06:20:18;;;;;;;11.03;10.03;;;;;;;26.33;47.84;95384.59;6258068;27;109221;-68
2023/07/13 06:23:21;;;;;;;10.63;9.73;;;;;;;26.43;47.85;95385.00;6263963;27;110334;-67
2023/07/13 06:26:24;;;;;;;10.40;9.40;;;;;;;26.54;47.70;95386.19;6264565;27;109981;-68
2023/07/13 06:29:29;;;;;;;10.10;9.10;;;;;;;26.62;47.20;95387.25;6253612;27;109125;-68
2023/07/13 06:32:32;;;;;;;9.40;8.37;;;;;;;26.66;47.30;95379.34;6263674;27;109294;-66
2023/07/13 06:35:35;;;;;;;11.03;10.13;;;;;;;26.68;47.23;95385.97;6263920;27;108974;-69
2023/07/13 06:38:39;;;;;;;10.13;9.13;;;;;;;26.68;46.94;95377.13;6263563;27;109287;-67
2023/07/13 06:41:42;;;;;;;10.20;9.10;;;;;;;26.71;46.75;95379.94;6252977;27;111634;-68
2023/07/13 06:44:46;;;;;;;10.73;9.90;;;;;;;26.78;47.11;95372.16;6263633;27;112614;-68
2023/07/13 06:47:50;;;;;;;10.90;9.80;;;;;;;26.83;46.75;95381.91;6263761;27;108761;-68
2023/07/13 06:50:53;;;;;;;11.27;9.40;;;;;;;27.05;47.57;95388.84;6263601;27;109023;-69
2023/07/13 06:53:56;;;;;;;10.30;8.73;;;;;;;27.09;47.60;95384.41;6253245;27;108970;-68
2023/07/13 06:56:59;;;;;;;16.20;9.50;;;;;;;27.11;47.19;95385.63;6263414;27;109012;-69
2023/07/13 07:00:06;;;;;;;13.00;9.20;;;;;;;27.11;46.53;95372.22;6263372;27;108943;-68
2023/07/13 07:03:10;;;;;;;17.53;15.97;;;;;;;27.18;47.31;95379.72;6255379;27;109084;-67
2023/07/13 07:06:16;;;;;;;13.93;12.33;;;;;;;27.20;46.57;95374.00;6261608;27;109025;-68
2023/07/13 07:09:20;;;;;;;11.00;9.90;;;;;;;27.23;46.67;95378.75;6262836;27;109019;-69
2023/07/13 07:12:23;;;;;;;11.20;10.23;;;;;;;27.18;45.57;95387.78;6263534;27;109947;-69
2023/07/13 07:15:28;;;;;;;15.30;10.70;;;;;;;27.24;46.09;95383.78;6252755;27;109499;-68
2023/07/13 07:18:31;;;;;;;10.80;9.70;;;;;;;27.39;46.85;95383.22;6262960;27;108874;-70
2023/07/13 07:21:34;;;;;;;11.97;10.13;;;;;;;27.44;46.25;95379.50;6262839;27;109002;-69
2023/07/13 07:24:37;;;;;;;10.30;9.30;;;;;;;27.53;45.94;95379.41;6262550;27;108908;-69
2023/07/13 07:27:40;;;;;;;10.87;9.07;;;;;;;27.54;46.16;95375.59;6252818;27;109320;-68
2023/07/13 07:30:48;;;;;;;10.57;9.43;;;;;;;27.57;45.85;95372.28;6263473;27;110870;-73
2023/07/13 07:33:54;;;;;;;11.87;10.70;;;;;;;27.60;45.47;95376.97;6263846;27;112087;-69
2023/07/13 07:37:02;;;;;;;11.57;10.47;;;;;;;27.63;45.00;95373.63;6258332;27;109007;-68
2023/07/13 07:40:09;;;;;;;10.30;9.40;;;;;;;27.56;45.48;95370.69;6258060;27;108857;-69
2023/07/13 07:43:15;;;;;;;12.77;11.40;;;;;;;27.63;46.06;95365.56;6259018;27;108891;-68
2023/07/13 07:46:19;;;;;;;10.47;9.43;;;;;;;27.77;45.03;95361.44;6262234;27;109408;-69
2023/07/13 07:49:23;;;;;;;11.40;9.47;;;;;;;27.73;44.84;95357.06;6251938;27;109155;-70
2023/07/13 07:52:26;;;;;;;10.17;9.27;;;;;;;27.77;45.24;95357.97;6262393;27;109745;-69
2023/07/13 07:55:29;;;;;;;11.30;10.20;;;;;;;27.79;44.52;95355.72;6262776;27;112035;-69
2023/07/13 07:58:35;;;;;;;10.00;9.00;;;;;;;27.85;45.45;95351.69;6259469;27;109850;-68
2023/07/13 08:01:45;;;;;;;11.00;9.90;;;;;;;27.88;45.13;95353.72;6251151;27;108970;-69
2023/07/13 08:04:51;;;;;;;10.40;9.60;;;;;;;27.91;46.04;95350.38;6262447;27;110279;-68
2023/07/13 08:07:57;;;;;;;12.30;10.53;;;;;;;27.90;45.12;95346.13;6258757;27;108893;-70
2023/07/13 08:11:04;;;;;;;10.77;9.93;;;;;;;27.95;44.94;95339.72;6257119;27;110047;-68
2023/07/13 08:14:27;;;;;;;10.37;9.47;;;;;;;27.97;45.03;95324.81;6261417;27;108683;-69
2023/07/13 08:17:46;;;;;;;10.70;9.70;;;;;;;28.02;45.84;95324.59;6261191;27;109419;-68
2023/07/13 08:20:49;;;;;;;13.57;10.17;;;;;;;28.09;45.63;95328.63;6261945;27;109348;-69
2023/07/13 08:23:52;;;;;;;11.37;10.47;;;;;;;28.09;44.72;95323.25;6251092;27;109323;-69
2023/07/13 08:26:55;;;;;;;10.90;9.00;;;;;;;28.19;45.35;95328.94;6262457;27;109363;-69
2023/07/13 08:29:58;;;;;;;10.37;9.27;;;;;;;28.03;45.16;95314.59;6261736;27;109105;-69
2023/07/13 08:33:03;;;;;;;16.03;11.60;;;;;;;28.12;45.21;95314.50;6261622;27;109048;-68
2023/07/13 08:36:07;;;;;;;20.00;18.40;;;;;;;28.05;45.95;95310.44;6251243;27;110132;-69
2023/07/13 08:39:10;;;;;;;22.60;20.90;;;;;;;27.98;45.71;95312.16;6261641;27;109744;-69
2023/07/13 08:42:19;;;;;;;21.43;19.70;;;;;;;27.94;46.23;95308.56;6261126;27;108930;-69
2023/07/13 08:45:26;;;;;;;18.40;17.00;;;;;;;27.93;45.48;95305.09;6254617;27;110356;-68
2023/07/13 08:48:35;;;;;;;14.40;13.10;;;;;;;28.08;45.81;95289.41;6260983;27;109519;-70
2023/07/13 08:51:44;;;;;;;13.63;12.33;;;;;;;28.02;45.91;95302.28;6261559;27;109026;-70
2023/07/13 08:54:52;;;;;;;16.40;14.97;;;;;;;27.94;45.66;95306.66;6261916;27;109038;-72
2023/07/13 08:58:03;;;;;;;12.90;11.80;;;;;;;28.13;46.26;95302.63;6251439;27;108978;-72
2023/07/13 09:01:24;;;;;;;14.67;11.77;;;;;;;28.09;46.25;95309.81;6261095;27;108976;-71
2023/07/13 09:04:34;;;;;;;11.57;10.77;;;;;;;28.08;45.95;95308.22;6261248;27;109377;-72
2023/07/13 09:07:52;;;;;;;12.43;11.27;;;;;;;28.17;45.51;95315.03;6256146;27;109233;-72
2023/07/13 09:11:06;;;;;;;13.23;12.10;;;;;;;28.26;44.70;95314.94;6255628;27;109042;-71
2023/07/13 09:14:29;;;;;;;13.03;11.23;;;;;;;28.40;44.94;95336.13;6261461;27;108923;-71
2023/07/13 09:17:42;;;;;;;12.13;10.83;;;;;;;28.39;45.16;95329.13;6260354;27;109055;-71
2023/07/13 09:20:52;;;;;;;12.73;10.93;;;;;;;28.45;45.03;95333.97;6250548;27;109218;-71
2023/07/13 09:24:00;;;;;;;13.80;11.40;;;;;;;28.36;45.26;95328.69;6261389;27;109464;-73
2023/07/13 09:27:13;;;;;;;12.07;11.07;;;;;;;28.43;45.39;95333.53;6260716;27;109026;-71
2023/07/13 09:30:30;;;;;;;11.93;10.70;;;;;;;28.34;46.00;95330.16;6256634;27;109009;-67
2023/07/13 09:33:34;;;;;;;11.43;10.43;;;;;;;28.34;45.56;95324.78;6251189;27;109786;-71
2023/07/13 09:36:39;;;;;;;12.57;11.13;;;;;;;28.29;45.62;95330.41;6260496;27;109005;-71
2023/07/13 09:39:43;;;;;;;10.73;9.93;;;;;;;28.23;45.77;95323.69;6263980;27;112185;-71
2023/07/13 09:42:47;;;;;;;12.70;11.40;;;;;;;28.13;46.20;95330.31;6254619;27;109010;-71
2023/07/13 09:45:50;;;;;;;12.37;11.07;;;;;;;28.12;45.68;95333.34;6265141;27;108652;-71
2023/07/13 09:48:54;;;;;;;12.73;11.40;;;;;;;28.09;45.22;95317.88;6264385;27;109022;-71
2023/07/13 09:52:04;;;;;;;12.13;10.93;;;;;;;28.18;46.00;95311.22;6264714;27;110093;-71
2023/07/13 09:55:24;;;;;;;12.07;10.97;;;;;;;28.33;45.73;95307.06;6254320;27;109325;-70
2023/07/13 09:58:31;;;;;;;12.10;10.83;;;;;;;28.37;45.34;95297.19;6264461;27;108654;-62
2023/07/13 10:01:37;;;;;;;12.63;10.50;;;;;;;28.35;45.50;95288.66;6264217;27;109088;-64
2023/07/13 10:04:41;;;;;;;12.10;10.90;;;;;;;28.33;44.82;95286.31;6258889;27;108905;-66
2023/07/13 10:07:46;;;;;;;13.70;11.10;;;;;;;28.40;44.61;95285.75;6259286;27;109555;-62
2023/07/13 10:10:55;;;;;;;13.27;10.80;;;;;;;28.45;45.17;95290.09;6263936;27;109114;-63
2023/07/13 10:14:01;;;;;;;12.43;11.20;;;;;;;28.56;43.80;95275.06;6264327;27;109078;-62
2023/07/13 10:17:05;;;;;;;11.90;10.70;;;;;;;28.52;43.75;95269.56;6252902;27;108984;-62
2023/07/13 10:20:12;;;;;;;11.97;10.40;;;;;;;28.53;44.35;95268.44;6263972;27;109007;-63
2023/07/13 10:23:25;;;;;;;12.40;11.17;;;;;;;28.58;44.00;95268.22;6264055;27;109517;-63
2023/07/13 10:26:34;;;;;;;11.20;10.20;;;;;;;28.65;43.58;95275.69;6263977;27;108996;-63
2023/07/13 10:29:44;;;;;;;11.47;10.30;;;;;;;28.60;43.93;95274.03;6253820;27;110431;-63
2023/07/13 10:32:48;;;;;;;11.20;10.10;;;;;;;28.56;44.18;95261.59;6263700;27;109039;-63
2023/07/13 10:35:59;;;;;;;12.30;11.10;;;;;;;28.62;43.78;95271.78;6263857;27;109066;-63
2023/07/13 10:39:06;;;;;;;13.60;10.30;;;;;;;28.72;43.02;95259.72;6256772;27;109063;-65
2023/07/13 10:42:15;;;;;;;13.00;10.33;;;;;;;28.75;42.76;95255.59;6262803;27;108986;-63
2023/07/13 10:45:21;;;;;;;15.03;10.93;;;;;;;28.73;42.16;95253.25;6263819;27;109450;-64
2023/07/13 10:48:25;;;;;;;14.03;11.43;;;;;;;28.76;42.84;95251.78;6263217;27;109007;-64
2023/07/13 10:51:29;;;;;;;13.13;10.60;;;;;;;28.75;42.37;95242.13;6252264;27;109001;-64
2023/07/13 10:54:35;;;;;;;12.30;11.00;;;;;;;28.82;42.06;95237.69;6263683;27;110009;-62
2023/07/13 10:57:43;;;;;;;11.40;10.20;;;;;;;28.77;42.11;95229.09;6263338;27;108689;-65
2023/07/13 11:00:53;;;;;;;10.90;9.90;;;;;;;28.76;42.60;95216.75;6263843;27;110949;-62
2023/07/13 11:04:02;;;;;;;13.97;11.10;;;;;;;28.80;42.45;95214.94;6253462;27;110014;-64
2023/07/13 11:07:18;;;;;;;11.70;10.47;;;;;;;28.85;41.85;95215.44;6263472;27;109017;-71
2023/07/13 11:10:51;;;;;;;12.83;10.23;;;;;;;28.76;41.98;95209.44;6263098;27;109474;-71
2023/07/13 11:14:02;;;;;;;11.50;9.93;;;;;;;28.62;42.61;95206.38;6252235;27;108955;-69
2023/07/13 11:17:36;;;;;;;11.13;10.03;;;;;;;28.58;42.37;95203.59;6263163;27;109769;-69
2023/07/13 11:20:42;;;;;;;16.33;11.10;;;;;;;28.61;42.55;95194.03;6262708;27;109079;-72
2023/07/13 11:23:52;;;;;;;11.93;10.70;;;;;;;28.66;42.32;95199.16;6262048;27;108970;-70
2023/07/13 11:26:57;;;;;;;11.53;10.33;;;;;;;28.72;41.84;95197.00;6256663;27;109210;-69
2023/07/13 11:30:10;;;;;;;11.37;10.37;;;;;;;28.77;41.38;95191.38;6262975;27;109955;-70
2023/07/13 11:33:19;;;;;;;11.63;10.53;;;;;;;28.69;41.64;95187.69;6262557;27;109053;-70
2023/07/13 11:36:25;;;;;;;11.47;10.47;;;;;;;28.56;43.00;95187.00;6252154;27;112072;-69
2023/07/13 11:39:32;;;;;;;11.83;10.80;;;;;;;28.38;43.60;95179.50;6262109;27;109755;-69
2023/07/13 11:42:37;;;;;;;11.63;10.50;;;;;;;28.30;43.39;95178.53;6262706;27;109287;-69
2023/07/13 11:45:40;;;;;;;11.60;10.40;;;;;;;28.31;43.55;95174.72;6262578;27;109025;-70
2023/07/13 11:48:51;;;;;;;11.30;10.20;;;;;;;28.51;42.72;95173.75;6252140;27;109059;-70
2023/07/13 11:51:55;;;;;;;10.33;9.40;;;;;;;28.69;40.74;95170.75;6262392;27;108950;-70
2023/07/13 11:55:02;;;;;;;10.53;9.57;;;;;;;28.71;40.56;95174.66;6263062;27;108914;-71
2023/07/13 11:58:10;;;;;;;11.00;9.90;;;;;;;28.68;40.76;95169.19;6257664;27;109246;-68
2023/07/13 12:01:21;;;;;;;12.20;10.20;;;;;;;28.56;41.51;95168.16;6254619;27;111503;-69
2023/07/13 12:04:27;;;;;;;11.47;10.10;;;;;;;28.60;41.69;95160.94;6262077;27;109018;-69
2023/07/13 12:07:33;;;;;;;13.10;9.50;;;;;;;28.76;39.70;95157.50;6262383;27;110594;-69
2023/07/13 12:10:37;;;;;;;10.03;8.80;;;;;;;28.75;39.67;95148.63;6251259;27;108973;-70
2023/07/13 12:13:41;;;;;;;10.80;9.70;;;;;;;28.79;39.86;95146.81;6263079;27;109774;-69
2023/07/13 12:16:46;;;;;;;19.03;9.60;;;;;;;28.84;39.52;95145.75;6261897;27;109142;-70
2023/07/13 12:19:51;;;;;;;10.93;9.83;;;;;;;28.89;39.74;95148.19;6263081;27;108845;-64
2023/07/13 12:22:55;;;;;;;15.40;10.90;;;;;;;28.85;40.10;95139.22;6251989;27;109321;-64
2023/07/13 12:26:00;;;;;;;12.03;8.67;;;;;;;28.91;38.84;95129.78;6261705;27;109005;-64
2023/07/13 12:29:08;;;;;;;9.90;8.93;;;;;;;28.96;38.16;95124.13;6261610;27;108770;-65
2023/07/13 12:32:18;;;;;;;15.00;8.30;;;;;;;29.13;36.92;95118.41;6256863;27;108990;-64
2023/07/13 12:35:21;;;;;;;9.47;8.50;;;;;;;29.17;36.61;95124.66;6256770;27;109168;-64
2023/07/13 12:38:26;;;;;;;10.30;9.40;;;;;;;29.20;36.33;95115.09;6261585;27;109414;-64
2023/07/13 12:41:29;;;;;;;11.43;9.03;;;;;;;29.13;36.81;95113.00;6261693;27;109243;-65
2023/07/13 12:44:34;;;;;;;11.47;8.70;;;;;;;29.22;36.47;95110.13;6252159;27;109394;-66
2023/07/13 12:47:42;;;;;;;12.63;8.90;;;;;;;29.23;37.71;95101.72;6261565;27;109004;-64
2023/07/13 12:50:50;;;;;;;8.90;8.10;;;;;;;29.27;37.38;95109.09;6262177;27;110071;-64
2023/07/13 12:53:59;;;;;;;10.13;9.07;;;;;;;29.23;36.75;95101.72;6261381;27;109221;-65
2023/07/13 12:57:03;;;;;;;10.83;8.40;;;;;;;29.10;37.78;95094.84;6251886;27;109672;-65
2023/07/13 13:00:24;;;;;;;11.60;8.83;;;;;;;29.02;37.81;95095.78;6260870;27;109060;-65
2023/07/13 13:03:32;;;;;;;10.37;9.27;;;;;;;29.05;37.66;95095.09;6260983;27;109100;-66
2023/07/13 13:06:37;;;;;;;9.50;8.60;;;;;;;29.16;37.81;95085.34;6256968;27;108807;-64
2023/07/13 13:09:40;;;;;;;9.40;8.20;;;;;;;29.11;37.71;95087.56;6256256;27;110490;-65
2023/07/13 13:12:43;;;;;;;10.60;8.73;;;;;;;29.28;36.65;95083.69;6262965;27;109057;-65
2023/07/13 13:15:47;;;;;;;13.13;8.47;;;;;;;29.35;36.74;95076.53;6265863;27;110105;-65
2023/07/13 13:18:52;;;;;;;11.03;8.80;;;;;;;29.36;36.40;95082.72;6255152;27;108998;-65
2023/07/13 13:21:57;;;;;;;10.53;8.80;;;;;;;29.40;36.49;95078.16;6265623;27;109022;-65
2023/07/13 13:25:00;;;;;;;9.23;8.10;;;;;;;29.20;36.85;95074.66;6265231;27;109482;-65
2023/07/13 13:28:15;;;;;;;9.87;8.67;;;;;;;29.19;37.39;95073.88;6265665;27;109160;-63
2023/07/13 13:31:19;;;;;;;10.47;8.90;;;;;;;29.12;37.65;95062.94;6254953;27;109226;-63
2023/07/13 13:34:24;;;;;;;11.87;8.30;;;;;;;29.17;37.20;95059.97;6265213;27;109026;-63
2023/07/13 13:37:27;;;;;;;10.77;8.63;;;;;;;29.07;37.26;95060.53;6265196;27;109322;-63
2023/07/13 13:40:30;;;;;;;12.00;8.70;;;;;;;28.95;38.16;95066.75;6260512;27;109432;-64
2023/07/13 13:43:33;;;;;;;10.13;9.13;;;;;;;28.88;38.42;95058.50;6259424;27;109327;-63
2023/07/13 13:46:38;;;;;;;9.87;8.83;;;;;;;28.97;38.61;95058.31;6265088;27;109031;-64
2023/07/13 13:49:42;;;;;;;10.43;9.27;;;;;;;29.00;37.69;95060.31;6264784;27;109057;-62
2023/07/13 13:52:45;;;;;;;9.43;8.20;;;;;;;29.14;36.80;95057.97;6254719;27;109898;-62
2023/07/13 13:55:48;;;;;;;10.53;9.13;;;;;;;29.03;37.40;95056.91;6264707;27;109188;-65
2023/07/13 13:58:51;;;;;;;10.83;8.90;;;;;;;28.97;37.32;95052.94;6264877;27;109060;-63
2023/07/13 14:01:59;;;;;;;10.40;9.17;;;;;;;28.91;37.70;95054.34;6264052;27;109476;-63
2023/07/13 14:05:05;;;;;;;15.47;9.60;;;;;;;29.03;37.67;95054.22;6254260;27;109211;-63
2023/07/13 14:08:14;;;;;;;10.00;9.10;;;;;;;29.12;36.63;95051.38;6264948;27;108978;-62
2023/07/13 14:11:20;;;;;;;12.67;8.30;;;;;;;28.93;37.18;95044.78;6264162;27;108984;-63
2023/07/13 14:14:25;;;;;;;9.50;8.00;;;;;;;28.91;37.04;95043.56;6259910;27;109176;-65